Time;durP1;ratioP1;P1;durP2;ratioP2;P2;SDS_P1;SDS_P2;PMS_P1;PMS_P2;Temp;Humidity;BMP_temperature;BMP_pressure;BME280_temperature;BME280_humidity;BME280_pressure;Samples;Min_cycle;Max_cycle;Signal;HPM_P1;HPM_P2
2021/10/17 00:01:23;;;;;;;12.10;7.18;;;7.70;1.00;;;;;;4880356;29;20132;-75
2021/10/17 00:03:49;;;;;;;9.55;6.95;;;7.60;1.00;;;;;;4880210;29;20556;-74
2021/10/17 00:06:16;;;;;;;11.35;7.07;;;7.60;1.00;;;;;;4880077;29;20059;-74
2021/10/17 00:08:42;;;;;;;11.63;6.70;;;7.50;1.00;;;;;;4880544;29;20088;-75
2021/10/17 00:11:08;;;;;;;8.35;6.63;;;7.50;1.00;;;;;;4880447;29;20037;-75
2021/10/17 00:13:34;;;;;;;7.85;6.85;;;7.50;1.00;;;;;;4882645;29;20049;-75
2021/10/17 00:16:00;;;;;;;9.23;6.60;;;7.40;1.00;;;;;;4883513;29;20108;-75
2021/10/17 00:18:26;;;;;;;7.60;5.20;;;7.40;1.00;;;;;;4883674;29;20049;-75
2021/10/17 00:20:52;;;;;;;7.93;5.72;;;7.40;1.00;;;;;;4883591;29;20048;-75
2021/10/17 00:23:18;;;;;;;7.60;6.28;;;7.50;1.00;;;;;;4883353;29;20057;-75
2021/10/17 00:25:44;;;;;;;10.10;6.55;;;7.40;1.00;;;;;;4883159;29;20457;-75
2021/10/17 00:28:10;;;;;;;8.63;6.20;;;7.30;1.00;;;;;;4883523;29;20497;-75
2021/10/17 00:30:35;;;;;;;9.55;7.38;;;7.30;1.00;;;;;;4882707;29;20069;-75
2021/10/17 00:33:01;;;;;;;9.13;6.78;;;7.40;1.00;;;;;;4883116;29;20045;-75
2021/10/17 00:35:28;;;;;;;11.02;7.22;;;7.30;1.00;;;;;;4883271;29;20135;-75
2021/10/17 00:37:53;;;;;;;8.40;6.03;;;7.20;1.00;;;;;;4883086;29;20492;-75
2021/10/17 00:40:22;;;;;;;9.20;6.85;;;7.30;1.00;;;;;;4882946;29;20125;-75
2021/10/17 00:42:49;;;;;;;7.40;6.13;;;7.30;1.00;;;;;;4882925;29;20124;-75
2021/10/17 00:45:27;;;;;;;7.47;6.40;;;7.30;1.00;;;;;;4882515;29;20069;-74
2021/10/17 00:47:53;;;;;;;8.52;6.35;;;7.30;1.00;;;;;;4882745;29;20045;-75
2021/10/17 00:50:19;;;;;;;9.85;6.07;;;7.20;1.00;;;;;;4882534;29;20512;-75
2021/10/17 00:52:45;;;;;;;10.82;6.45;;;7.20;1.00;;;;;;4882485;29;20049;-74
2021/10/17 00:55:14;;;;;;;11.07;6.22;;;7.20;1.00;;;;;;4882419;29;20516;-74
2021/10/17 00:57:41;;;;;;;8.20;6.18;;;7.10;1.00;;;;;;4882733;29;20044;-75
2021/10/17 01:00:08;;;;;;;7.25;6.15;;;7.20;1.00;;;;;;4882903;29;20049;-74
2021/10/17 01:02:33;;;;;;;8.57;6.57;;;7.10;1.00;;;;;;4882383;29;20055;-75
2021/10/17 01:04:59;;;;;;;8.70;6.15;;;7.10;1.00;;;;;;4882978;29;20049;-75
2021/10/17 01:07:26;;;;;;;7.57;6.15;;;7.10;1.00;;;;;;4866148;29;20040;-75
2021/10/17 01:09:52;;;;;;;6.90;5.78;;;7.00;1.00;;;;;;4882956;29;20124;-75
2021/10/17 01:12:18;;;;;;;8.15;6.20;;;7.20;1.00;;;;;;4881435;29;20069;-75
2021/10/17 01:14:44;;;;;;;8.48;6.80;;;7.20;1.00;;;;;;4881879;29;20045;-75
2021/10/17 01:17:09;;;;;;;8.55;6.00;;;7.30;1.00;;;;;;4882135;29;20409;-74
2021/10/17 01:19:35;;;;;;;8.25;6.65;;;7.20;1.00;;;;;;4882309;29;20045;-75
2021/10/17 01:22:03;;;;;;;7.43;6.03;;;7.10;1.00;;;;;;4881746;29;20543;-75
2021/10/17 01:24:29;;;;;;;7.22;5.97;;;7.10;1.00;;;;;;4881797;29;20037;-74
2021/10/17 01:26:54;;;;;;;6.72;5.60;;;7.00;1.00;;;;;;4882081;29;20199;-74
2021/10/17 01:29:20;;;;;;;7.63;5.60;;;6.90;1.00;;;;;;4882702;29;20037;-74
2021/10/17 01:31:46;;;;;;;9.48;6.72;;;6.90;1.00;;;;;;4882040;29;20055;-74
2021/10/17 01:34:13;;;;;;;6.68;5.43;;;6.90;1.00;;;;;;4882313;29;20037;-75
2021/10/17 01:36:40;;;;;;;6.68;5.85;;;6.80;1.00;;;;;;4882268;29;20081;-75
2021/10/17 01:39:08;;;;;;;7.20;5.53;;;6.80;1.00;;;;;;4882530;29;20033;-74
2021/10/17 01:41:34;;;;;;;7.40;5.75;;;6.70;1.00;;;;;;4881881;29;20064;-75
2021/10/17 01:44:07;;;;;;;6.13;5.45;;;6.80;1.00;;;;;;4881855;29;20509;-75
2021/10/17 01:46:35;;;;;;;7.03;5.93;;;6.80;1.00;;;;;;4881389;29;20060;-75
2021/10/17 01:49:01;;;;;;;7.60;5.93;;;6.80;1.00;;;;;;4882067;29;20041;-75
2021/10/17 01:51:27;;;;;;;6.35;5.68;;;6.80;1.00;;;;;;4881900;29;20056;-75
2021/10/17 01:53:53;;;;;;;8.55;5.75;;;6.80;1.00;;;;;;4881799;29;20041;-75
2021/10/17 01:56:19;;;;;;;7.75;6.07;;;6.80;1.00;;;;;;4881638;29;20405;-75
2021/10/17 01:58:45;;;;;;;7.40;5.35;;;6.80;1.00;;;;;;4882189;29;20120;-75
2021/10/17 02:01:11;;;;;;;7.80;5.82;;;6.80;1.00;;;;;;4882234;29;20132;-75
2021/10/17 02:03:36;;;;;;;7.63;5.90;;;6.90;1.00;;;;;;4880478;29;20184;-75
2021/10/17 02:06:02;;;;;;;7.47;5.72;;;7.00;1.00;;;;;;4881148;29;20048;-75
2021/10/17 02:08:29;;;;;;;8.80;6.70;;;6.80;1.00;;;;;;4882029;29;20166;-75
2021/10/17 02:10:56;;;;;;;6.80;5.75;;;6.80;1.00;;;;;;4881503;29;20132;-75
2021/10/17 02:13:22;;;;;;;7.72;6.45;;;6.60;1.00;;;;;;4881594;29;20051;-75
2021/10/17 02:15:48;;;;;;;7.85;5.75;;;6.70;1.00;;;;;;4881173;29;20048;-75
2021/10/17 02:18:14;;;;;;;7.90;5.60;;;6.70;1.00;;;;;;4881864;29;20045;-75
2021/10/17 02:20:40;;;;;;;7.80;6.15;;;6.70;1.00;;;;;;4881498;29;20040;-75
2021/10/17 02:23:06;;;;;;;7.03;5.57;;;6.60;1.00;;;;;;4881098;29;20088;-75
2021/10/17 02:25:33;;;;;;;10.30;6.10;;;6.50;1.00;;;;;;4881082;29;20073;-74
2021/10/17 02:27:59;;;;;;;6.97;5.80;;;6.50;1.00;;;;;;4881451;29;20080;-74
2021/10/17 02:30:26;;;;;;;6.20;5.55;;;6.40;1.00;;;;;;4880826;29;20041;-75
2021/10/17 02:32:51;;;;;;;8.38;5.57;;;6.40;1.00;;;;;;4880873;29;20044;-74
2021/10/17 02:35:17;;;;;;;8.05;6.50;;;6.50;1.00;;;;;;4880001;29;20049;-74
2021/10/17 02:37:43;;;;;;;7.60;5.82;;;6.40;1.00;;;;;;4880773;29;20560;-74
2021/10/17 02:40:10;;;;;;;6.78;5.15;;;6.40;1.00;;;;;;4881229;29;20040;-74
2021/10/17 02:42:36;;;;;;;6.95;5.35;;;6.30;1.00;;;;;;4880690;29;20513;-75
2021/10/17 02:45:04;;;;;;;8.30;5.45;;;6.30;1.00;;;;;;4879580;29;20045;-74
2021/10/17 02:47:29;;;;;;;5.70;4.90;;;6.40;1.00;;;;;;4880730;29;20040;-74
2021/10/17 02:49:55;;;;;;;6.35;5.65;;;6.30;1.00;;;;;;4879618;29;20041;-74
2021/10/17 02:52:21;;;;;;;7.43;5.57;;;6.20;1.00;;;;;;4880659;29;20083;-75
2021/10/17 02:54:47;;;;;;;6.22;5.35;;;6.20;1.00;;;;;;4880813;29;20048;-74
2021/10/17 02:57:13;;;;;;;7.45;5.60;;;6.20;1.00;;;;;;4880489;29;20140;-74
2021/10/17 02:59:39;;;;;;;8.52;5.47;;;6.20;1.00;;;;;;4880875;29;20481;-74
2021/10/17 03:02:05;;;;;;;7.63;5.38;;;6.20;1.00;;;;;;4880553;29;20520;-75
2021/10/17 03:04:31;;;;;;;7.38;5.60;;;6.20;1.00;;;;;;4880435;29;20124;-75
2021/10/17 03:06:57;;;;;;;7.20;5.47;;;6.20;1.00;;;;;;4880526;29;20512;-75
2021/10/17 03:09:22;;;;;;;5.72;4.85;;;6.10;1.00;;;;;;4880982;29;20069;-74
2021/10/17 03:11:48;;;;;;;7.18;5.30;;;6.20;1.00;;;;;;4880620;29;20045;-74
2021/10/17 03:14:14;;;;;;;8.05;5.32;;;6.20;1.00;;;;;;4880820;29;20110;-74
2021/10/17 03:16:42;;;;;;;7.53;5.40;;;6.20;1.00;;;;;;4880413;29;20581;-75
2021/10/17 03:19:11;;;;;;;7.32;5.30;;;6.10;1.00;;;;;;4880890;29;20049;-74
2021/10/17 03:21:37;;;;;;;6.32;5.55;;;6.10;1.00;;;;;;4880544;29;20052;-75
2021/10/17 03:24:03;;;;;;;6.82;5.47;;;6.00;1.00;;;;;;4880863;29;20061;-74
2021/10/17 03:26:29;;;;;;;6.40;4.72;;;5.90;1.00;;;;;;4880856;29;20091;-74
2021/10/17 03:28:55;;;;;;;7.18;5.70;;;6.00;1.00;;;;;;4881087;29;20132;-74
2021/10/17 03:31:21;;;;;;;8.18;5.30;;;5.90;1.00;;;;;;4880548;29;20037;-74
2021/10/17 03:33:46;;;;;;;6.50;5.43;;;5.90;1.00;;;;;;4881007;29;20104;-74
2021/10/17 03:36:12;;;;;;;6.90;4.97;;;5.90;1.00;;;;;;4880664;29;20044;-74
2021/10/17 03:38:38;;;;;;;6.40;5.05;;;5.90;1.00;;;;;;4881023;29;20569;-74
2021/10/17 03:41:04;;;;;;;6.43;5.35;;;5.90;1.00;;;;;;4881079;29;20044;-74
2021/10/17 03:43:31;;;;;;;6.45;5.45;;;5.90;1.00;;;;;;4880421;29;20044;-74
2021/10/17 03:45:57;;;;;;;6.47;5.47;;;6.00;1.00;;;;;;4880401;29;20140;-75
2021/10/17 03:48:23;;;;;;;8.73;6.00;;;5.90;1.00;;;;;;4884531;29;20124;-74
2021/10/17 03:50:49;;;;;;;8.60;5.95;;;5.80;1.00;;;;;;4883880;29;20077;-74
2021/10/17 03:53:15;;;;;;;7.95;5.32;;;5.80;1.00;;;;;;4883828;29;20053;-74
2021/10/17 03:55:41;;;;;;;6.80;5.68;;;5.80;1.00;;;;;;4883804;29;20048;-74
2021/10/17 03:58:08;;;;;;;7.28;5.40;;;5.90;1.00;;;;;;4884244;29;20045;-75
2021/10/17 04:00:34;;;;;;;5.70;4.82;;;5.80;1.00;;;;;;4883943;29;20064;-75
2021/10/17 04:03:00;;;;;;;6.68;5.45;;;5.90;1.00;;;;;;4884436;29;20500;-75
2021/10/17 04:05:26;;;;;;;6.35;5.45;;;5.90;1.00;;;;;;4883821;29;20056;-74
2021/10/17 04:07:51;;;;;;;6.38;5.43;;;5.80;1.00;;;;;;4883640;29;20123;-74
2021/10/17 04:10:17;;;;;;;8.10;5.85;;;5.90;1.00;;;;;;4883531;29;20040;-74
2021/10/17 04:12:43;;;;;;;8.73;5.65;;;5.90;1.00;;;;;;4883788;29;20049;-74
2021/10/17 04:15:09;;;;;;;7.10;5.55;;;6.00;1.00;;;;;;4883716;29;20466;-74
2021/10/17 04:17:35;;;;;;;6.25;5.55;;;5.90;1.00;;;;;;4883680;29;20079;-74
2021/10/17 04:20:02;;;;;;;10.75;5.72;;;5.80;1.00;;;;;;4883372;29;20029;-74
2021/10/17 04:22:27;;;;;;;6.47;5.38;;;5.70;1.00;;;;;;4883369;29;20113;-74
2021/10/17 04:24:53;;;;;;;8.18;6.07;;;5.60;1.00;;;;;;4883689;29;20045;-74
2021/10/17 04:27:19;;;;;;;6.68;5.80;;;5.70;1.00;;;;;;4883412;29;20045;-74
2021/10/17 04:29:45;;;;;;;6.03;5.28;;;5.60;1.00;;;;;;4883464;29;20052;-74
2021/10/17 04:32:10;;;;;;;7.30;5.50;;;5.60;1.00;;;;;;4882671;29;20055;-75
2021/10/17 04:34:37;;;;;;;8.57;5.82;;;5.50;1.00;;;;;;4883368;29;20530;-74
2021/10/17 04:37:05;;;;;;;7.97;5.70;;;5.60;1.00;;;;;;4883233;29;20041;-74
2021/10/17 04:39:32;;;;;;;7.65;5.32;;;5.60;1.00;;;;;;4882786;29;20405;-74
2021/10/17 04:41:59;;;;;;;6.70;5.43;;;5.60;1.00;;;;;;4882655;29;20041;-75
2021/10/17 04:44:25;;;;;;;8.07;5.43;;;5.50;1.00;;;;;;4882633;29;20049;-75
2021/10/17 04:46:51;;;;;;;6.95;5.55;;;5.50;1.00;;;;;;4882399;29;20581;-75
2021/10/17 04:49:17;;;;;;;7.32;5.38;;;5.60;1.00;;;;;;4883205;29;20048;-75
2021/10/17 04:51:42;;;;;;;5.65;5.03;;;5.60;1.00;;;;;;4882533;29;20068;-75
2021/10/17 04:54:09;;;;;;;7.95;5.68;;;5.60;1.00;;;;;;4882771;29;20508;-75
2021/10/17 04:56:35;;;;;;;8.43;6.13;;;5.70;1.00;;;;;;4882723;29;20104;-75
2021/10/17 04:59:01;;;;;;;6.07;5.47;;;5.60;1.00;;;;;;4881892;29;20047;-75
2021/10/17 05:01:27;;;;;;;8.25;5.82;;;5.60;1.00;;;;;;4882520;29;20397;-75
2021/10/17 05:03:53;;;;;;;6.90;5.75;;;5.50;1.00;;;;;;4882842;29;20041;-75
2021/10/17 05:06:19;;;;;;;7.65;5.78;;;5.50;1.00;;;;;;4882334;29;20056;-75
2021/10/17 05:08:45;;;;;;;8.18;5.25;;;5.50;1.00;;;;;;4882801;29;20037;-75
2021/10/17 05:11:11;;;;;;;6.80;5.30;;;5.50;1.00;;;;;;4882448;29;20069;-75
2021/10/17 05:13:37;;;;;;;7.95;5.78;;;5.50;1.00;;;;;;4882138;29;20100;-75
2021/10/17 05:16:03;;;;;;;9.27;6.82;;;5.40;1.00;;;;;;4881895;29;20049;-75
2021/10/17 05:18:29;;;;;;;12.20;8.32;;;5.40;1.00;;;;;;4882634;29;20124;-75
2021/10/17 05:20:55;;;;;;;9.50;6.72;;;5.50;1.00;;;;;;4882277;29;20059;-75
2021/10/17 05:23:23;;;;;;;9.93;6.82;;;5.50;1.00;;;;;;4881747;29;20049;-75
2021/10/17 05:25:49;;;;;;;7.47;6.10;;;5.60;1.00;;;;;;4882069;29;20045;-75
2021/10/17 05:28:15;;;;;;;10.70;7.32;;;5.60;1.00;;;;;;4881232;29;20398;-75
2021/10/17 05:30:41;;;;;;;10.38;6.82;;;5.70;1.00;;;;;;4881627;29;20045;-75
2021/10/17 05:33:06;;;;;;;8.20;5.70;;;5.70;1.00;;;;;;4881998;29;20051;-75
2021/10/17 05:35:32;;;;;;;9.77;6.95;;;5.80;1.00;;;;;;4881786;29;20445;-75
2021/10/17 05:37:58;;;;;;;11.32;7.03;;;5.80;1.00;;;;;;4882588;29;20037;-75
2021/10/17 05:40:24;;;;;;;7.97;5.72;;;5.60;1.00;;;;;;4882019;29;20515;-75
2021/10/17 05:42:50;;;;;;;9.90;7.00;;;5.60;1.00;;;;;;4881628;29;20048;-75
2021/10/17 05:45:15;;;;;;;10.65;6.57;;;5.60;1.00;;;;;;4881784;29;20048;-75
2021/10/17 05:47:41;;;;;;;7.78;6.50;;;5.70;1.00;;;;;;4881720;29;20049;-75
2021/10/17 05:50:08;;;;;;;10.73;6.63;;;5.70;1.00;;;;;;4881527;29;20130;-75
2021/10/17 05:52:34;;;;;;;9.70;6.80;;;5.70;1.00;;;;;;4881750;29;20080;-75
2021/10/17 05:55:00;;;;;;;7.45;5.88;;;5.50;1.00;;;;;;4881762;29;20068;-75
2021/10/17 05:57:26;;;;;;;7.75;5.85;;;5.50;1.00;;;;;;4881554;29;20557;-75
2021/10/17 05:59:51;;;;;;;8.13;6.03;;;5.30;1.00;;;;;;4881852;29;20092;-75
2021/10/17 06:02:18;;;;;;;7.30;5.97;;;5.30;1.00;;;;;;4881118;29;20052;-75
2021/10/17 06:04:45;;;;;;;7.78;5.63;;;5.20;1.00;;;;;;4881682;29;20041;-75
2021/10/17 06:07:11;;;;;;;7.72;5.97;;;5.20;1.00;;;;;;4881189;29;20075;-75
2021/10/17 06:09:39;;;;;;;8.13;5.55;;;5.20;1.00;;;;;;4881426;29;20181;-75
2021/10/17 06:12:07;;;;;;;10.18;5.97;;;5.10;1.00;;;;;;4881129;29;20045;-75
2021/10/17 06:14:33;;;;;;;6.00;5.35;;;5.30;1.00;;;;;;4881376;29;20045;-75
2021/10/17 06:16:59;;;;;;;6.32;5.40;;;5.50;1.00;;;;;;4880892;29;20413;-75
2021/10/17 06:19:26;;;;;;;6.88;5.43;;;5.60;1.00;;;;;;4881742;29;20041;-75
2021/10/17 06:21:52;;;;;;;9.63;5.60;;;5.50;1.00;;;;;;4880965;29;20048;-75
2021/10/17 06:24:18;;;;;;;7.20;6.05;;;5.40;1.00;;;;;;4881035;29;20127;-75
2021/10/17 06:26:45;;;;;;;8.90;5.88;;;5.30;1.00;;;;;;4880801;29;20049;-75
2021/10/17 06:29:11;;;;;;;9.23;6.60;;;5.50;1.00;;;;;;4880886;29;20401;-75
2021/10/17 06:31:37;;;;;;;8.80;6.30;;;5.50;1.00;;;;;;4880636;29;20056;-75
2021/10/17 06:34:04;;;;;;;10.80;6.90;;;5.40;1.00;;;;;;4880796;29;20491;-75
2021/10/17 06:36:30;;;;;;;9.57;6.57;;;5.40;1.00;;;;;;4881031;29;20037;-75
2021/10/17 06:38:56;;;;;;;12.95;6.70;;;5.40;1.00;;;;;;4880818;29;20048;-75
2021/10/17 06:41:22;;;;;;;9.52;6.85;;;5.40;1.00;;;;;;4880985;29;20041;-75
2021/10/17 06:43:48;;;;;;;8.35;5.90;;;5.50;1.00;;;;;;4880923;29;20485;-75
2021/10/17 06:46:14;;;;;;;8.77;6.57;;;5.60;1.00;;;;;;4880353;29;20052;-75
2021/10/17 06:48:40;;;;;;;9.27;5.80;;;5.60;1.00;;;;;;4880933;29;20048;-75
2021/10/17 06:51:06;;;;;;;8.50;6.35;;;5.60;1.00;;;;;;4880549;29;20049;-75
2021/10/17 06:53:31;;;;;;;8.20;6.45;;;5.60;1.00;;;;;;4880777;29;20500;-75
2021/10/17 06:55:57;;;;;;;6.45;5.75;;;5.60;1.00;;;;;;4880805;29;20512;-75
2021/10/17 06:58:23;;;;;;;8.75;6.03;;;5.60;1.00;;;;;;4880514;29;20028;-75
2021/10/17 07:00:49;;;;;;;6.38;5.45;;;5.50;1.00;;;;;;4880558;29;20076;-75
2021/10/17 07:03:15;;;;;;;9.35;6.53;;;5.60;1.00;;;;;;4880718;29;20043;-75
2021/10/17 07:05:40;;;;;;;7.90;5.90;;;5.70;1.00;;;;;;4880991;29;20527;-75
2021/10/17 07:08:06;;;;;;;10.45;6.80;;;5.80;1.00;;;;;;4881277;29;20096;-75
2021/10/17 07:10:32;;;;;;;8.15;6.32;;;5.90;1.00;;;;;;4880388;29;20045;-75
2021/10/17 07:12:58;;;;;;;7.88;6.40;;;6.00;1.00;;;;;;4880660;29;20047;-75
2021/10/17 07:15:24;;;;;;;8.73;6.72;;;6.00;1.00;;;;;;4880631;29;20430;-75
2021/10/17 07:17:49;;;;;;;8.57;6.95;;;6.10;1.00;;;;;;4880260;29;20045;-75
2021/10/17 07:20:15;;;;;;;9.60;6.38;;;6.20;1.00;;;;;;4880259;29;20068;-75
2021/10/17 07:22:41;;;;;;;11.85;6.75;;;6.20;1.00;;;;;;4882508;29;20064;-75
2021/10/17 07:25:07;;;;;;;7.93;6.75;;;6.30;1.00;;;;;;4884286;29;20178;-75
2021/10/17 07:27:33;;;;;;;9.00;6.75;;;6.40;1.00;;;;;;4884180;29;20045;-75
2021/10/17 07:29:58;;;;;;;8.25;7.00;;;6.50;1.00;;;;;;4883857;29;20128;-74
2021/10/17 07:32:24;;;;;;;9.82;6.90;;;6.50;1.00;;;;;;4882445;29;20081;-75
2021/10/17 07:34:50;;;;;;;7.63;6.25;;;6.60;1.00;;;;;;4884151;29;20045;-75
2021/10/17 07:37:16;;;;;;;8.45;5.85;;;6.60;1.00;;;;;;4884012;29;20056;-75
2021/10/17 07:39:42;;;;;;;7.78;6.55;;;6.60;1.00;;;;;;4884183;29;20032;-74
2021/10/17 07:42:08;;;;;;;6.85;5.75;;;6.70;1.00;;;;;;4882240;29;20580;-74
2021/10/17 07:44:33;;;;;;;7.97;6.38;;;6.80;1.00;;;;;;4881569;29;20041;-73
2021/10/17 07:46:59;;;;;;;8.18;6.40;;;6.80;1.00;;;;;;4882023;29;20139;-75
2021/10/17 07:49:25;;;;;;;7.45;6.03;;;6.90;1.00;;;;;;4882785;29;20045;-74
2021/10/17 07:51:51;;;;;;;9.55;6.03;;;7.00;1.00;;;;;;4883630;29;20047;-75
2021/10/17 07:54:17;;;;;;;6.97;6.00;;;7.10;1.00;;;;;;4871204;29;20034;-77
2021/10/17 07:56:43;;;;;;;8.25;6.93;;;7.20;1.00;;;;;;4864887;29;20532;-76
2021/10/17 07:59:09;;;;;;;8.70;6.80;;;7.30;1.00;;;;;;4864850;29;20041;-76
2021/10/17 08:01:34;;;;;;;9.23;6.75;;;7.30;1.00;;;;;;4864826;29;20043;-75
2021/10/17 08:04:00;;;;;;;10.40;7.00;;;7.30;1.00;;;;;;4864967;29;20055;-75
2021/10/17 08:06:26;;;;;;;10.05;7.82;;;7.40;1.00;;;;;;4864769;29;20207;-74
2021/10/17 08:08:52;;;;;;;9.18;7.03;;;7.60;1.00;;;;;;4881471;29;20509;-74
2021/10/17 08:11:18;;;;;;;8.40;6.80;;;7.60;1.00;;;;;;4883365;29;20048;-74
2021/10/17 08:13:44;;;;;;;10.00;6.80;;;7.70;1.00;;;;;;4883040;29;20052;-75
2021/10/17 08:16:11;;;;;;;8.40;6.45;;;7.90;1.00;;;;;;4883312;29;20045;-76
2021/10/17 08:18:37;;;;;;;6.78;5.70;;;8.30;1.00;;;;;;4883240;29;20044;-75
2021/10/17 08:21:03;;;;;;;8.65;5.53;;;8.90;1.00;;;;;;4883353;29;20454;-74
2021/10/17 08:23:29;;;;;;;6.63;5.60;;;9.30;1.00;;;;;;4883503;29;20053;-74
2021/10/17 08:25:56;;;;;;;8.50;6.15;;;9.60;1.00;;;;;;4883206;29;20424;-75
2021/10/17 08:28:22;;;;;;;9.55;6.05;;;9.80;1.00;;;;;;4876412;29;20041;-74
2021/10/17 08:30:50;;;;;;;7.85;6.03;;;9.80;1.00;;;;;;4864470;29;20037;-75
2021/10/17 08:33:17;;;;;;;6.95;6.25;;;9.80;1.00;;;;;;4863632;29;20050;-74
2021/10/17 08:35:44;;;;;;;6.28;5.35;;;9.90;1.00;;;;;;4864671;29;20037;-74
2021/10/17 08:38:10;;;;;;;7.57;5.90;;;10.00;1.00;;;;;;4864538;29;20053;-74
2021/10/17 08:40:38;;;;;;;8.02;6.20;;;10.00;1.00;;;;;;4876738;29;20116;-74
2021/10/17 08:43:04;;;;;;;9.45;7.82;;;9.80;1.00;;;;;;4864346;29;20041;-74
2021/10/17 08:45:29;;;;;;;9.80;8.43;;;9.70;1.00;;;;;;4864295;29;20041;-74
2021/10/17 08:47:57;;;;;;;9.02;6.70;;;9.60;1.00;;;;;;4871970;29;20077;-75
2021/10/17 08:50:23;;;;;;;8.05;6.35;;;9.50;1.00;;;;;;4880322;29;20068;-75
2021/10/17 08:52:49;;;;;;;7.47;6.10;;;9.70;1.00;;;;;;4880428;29;20052;-75
2021/10/17 08:55:15;;;;;;;6.85;6.15;;;9.60;1.00;;;;;;4880660;29;20037;-76
2021/10/17 08:57:41;;;;;;;12.85;6.60;;;9.70;1.00;;;;;;4881538;29;20060;-75
2021/10/17 09:00:39;;;;;;;9.23;5.85;;;9.80;1.00;;;;;;4882647;29;20040;-75
2021/10/17 09:03:05;;;;;;;7.22;6.30;;;9.70;1.00;;;;;;4879905;29;20041;-74
2021/10/17 09:05:37;;;;;;;7.00;6.15;;;9.80;1.00;;;;;;4882414;29;20141;-74
2021/10/17 09:08:03;;;;;;;8.15;6.15;;;10.00;1.00;;;;;;4882430;29;20049;-75
2021/10/17 09:10:30;;;;;;;7.35;5.85;;;10.10;1.00;;;;;;4882526;29;20032;-75
2021/10/17 09:13:09;;;;;;;8.77;5.95;;;10.50;1.00;;;;;;4882475;29;20048;-75
2021/10/17 09:15:36;;;;;;;7.10;5.90;;;10.90;1.00;;;;;;4882217;29;20045;-74
2021/10/17 09:18:13;;;;;;;7.30;5.20;;;11.20;1.00;;;;;;4882587;29;20045;-74
2021/10/17 09:20:51;;;;;;;6.57;5.20;;;11.50;1.00;;;;;;4883202;29;20040;-75
2021/10/17 09:23:21;;;;;;;6.75;5.32;;;11.80;1.00;;;;;;4856008;29;20088;-78
2021/10/17 09:25:47;;;;;;;7.45;5.07;;;12.00;1.00;;;;;;4861753;29;20045;-74
2021/10/17 09:28:20;;;;;;;7.80;5.70;;;12.20;1.00;;;;;;4864060;29;20052;-74
2021/10/17 09:31:10;;;;;;;5.90;4.95;;;12.40;1.00;;;;;;4863224;29;20073;-74
2021/10/17 09:33:44;;;;;;;5.95;4.90;;;12.70;1.00;;;;;;4862416;29;20125;-73
2021/10/17 09:36:19;;;;;;;7.72;5.15;;;12.80;1.00;;;;;;4862395;29;20050;-74
2021/10/17 09:38:47;;;;;;;5.30;4.65;;;13.00;1.00;;;;;;4860035;29;20071;-76
2021/10/17 09:41:45;;;;;;;5.88;4.53;;;13.10;1.00;;;;;;4862819;29;20128;-74
2021/10/17 09:44:11;;;;;;;6.93;5.03;;;13.30;1.00;;;;;;4861938;29;20128;-74
2021/10/17 09:46:37;;;;;;;6.68;5.30;;;13.40;1.00;;;;;;4863211;29;20145;-75
2021/10/17 09:49:18;;;;;;;9.50;6.47;;;13.80;1.00;;;;;;4863020;29;20049;-77
2021/10/17 09:51:43;;;;;;;7.32;6.07;;;14.00;1.00;;;;;;4846973;29;20064;-76
2021/10/17 09:54:10;;;;;;;6.63;4.38;;;14.10;1.00;;;;;;4863186;29;20482;-78
2021/10/17 09:56:39;;;;;;;5.15;4.65;;;14.20;1.00;;;;;;4862281;29;20037;-76
2021/10/17 09:59:07;;;;;;;5.50;4.40;;;14.20;1.00;;;;;;4862672;29;20053;-76
2021/10/17 10:01:34;;;;;;;4.70;3.63;;;14.20;1.00;;;;;;4862780;29;20065;-77
2021/10/17 10:04:03;;;;;;;6.13;3.97;;;14.10;1.00;;;;;;4862181;29;20041;-77
2021/10/17 10:06:30;;;;;;;5.05;3.47;;;14.10;1.00;;;;;;4862997;29;20056;-78
2021/10/17 10:08:59;;;;;;;6.30;5.38;;;14.10;1.00;;;;;;4861960;29;20037;-77
2021/10/17 10:11:27;;;;;;;6.47;4.78;;;14.30;1.00;;;;;;4862720;29;20045;-76
2021/10/17 10:13:56;;;;;;;8.40;5.07;;;14.50;1.00;;;;;;4863019;29;20045;-75
2021/10/17 10:16:28;;;;;;;6.53;4.97;;;14.60;1.00;;;;;;4862541;29;20077;-75
2021/10/17 10:18:58;;;;;;;6.78;3.80;;;14.80;1.00;;;;;;4860526;29;20045;-76
2021/10/17 10:21:25;;;;;;;4.97;3.80;;;14.80;1.00;;;;;;4860852;29;20049;-74
2021/10/17 10:23:54;;;;;;;7.10;4.30;;;14.90;1.00;;;;;;4862206;29;20117;-75
2021/10/17 10:26:26;;;;;;;6.18;4.25;;;15.00;1.00;;;;;;4857992;29;20053;-76
2021/10/17 10:28:53;;;;;;;5.70;4.00;;;15.10;1.00;;;;;;4844731;29;20041;-76
2021/10/17 10:31:53;;;;;;;6.00;4.28;;;15.10;1.00;;;;;;4860482;29;20071;-77
2021/10/17 10:34:21;;;;;;;7.20;4.50;;;15.10;1.00;;;;;;4834659;29;20051;-73
2021/10/17 10:36:49;;;;;;;6.45;4.10;;;15.20;1.00;;;;;;4860983;29;20194;-70
2021/10/17 10:39:34;;;;;;;3.47;3.17;;;15.40;1.00;;;;;;4860160;29;20041;-71
2021/10/17 10:42:14;;;;;;;4.88;3.67;;;15.50;1.00;;;;;;4862140;29;20044;-70
2021/10/17 10:44:41;;;;;;;5.55;3.88;;;15.60;1.00;;;;;;4861065;29;20091;-71
2021/10/17 10:47:24;;;;;;;4.85;3.55;;;15.70;1.00;;;;;;4862030;29;20084;-70
2021/10/17 10:49:57;;;;;;;4.93;3.17;;;15.70;1.00;;;;;;4862158;29;20506;-70
2021/10/17 10:52:29;;;;;;;4.97;3.38;;;15.70;1.00;;;;;;4859232;29;20037;-70
2021/10/17 10:54:57;;;;;;;5.63;3.42;;;15.80;1.00;;;;;;4861528;29;20049;-69
2021/10/17 10:57:29;;;;;;;5.18;3.35;;;15.80;1.00;;;;;;4861025;29;20041;-70
2021/10/17 11:00:06;;;;;;;5.10;3.40;;;15.80;1.00;;;;;;4861830;29;20056;-70
2021/10/17 11:02:33;;;;;;;5.22;3.70;;;15.90;1.00;;;;;;4861842;29;20097;-70
2021/10/17 11:05:02;;;;;;;4.95;3.95;;;16.00;1.00;;;;;;4861741;29;20046;-70
2021/10/17 11:07:29;;;;;;;5.97;3.60;;;16.30;1.00;;;;;;4862009;29;20050;-71
2021/10/17 11:09:57;;;;;;;5.25;3.60;;;16.50;1.00;;;;;;4861752;29;20041;-70
2021/10/17 11:12:41;;;;;;;5.05;3.67;;;16.70;1.00;;;;;;4861800;29;20466;-70
2021/10/17 11:15:10;;;;;;;6.57;3.63;;;17.00;1.00;;;;;;4861774;29;20068;-70
2021/10/17 11:17:37;;;;;;;6.53;3.42;;;17.00;1.00;;;;;;4861495;29;20041;-70
2021/10/17 11:20:04;;;;;;;4.18;3.50;;;16.90;1.00;;;;;;4862015;29;20053;-70
2021/10/17 11:22:36;;;;;;;4.80;2.88;;;17.10;1.00;;;;;;4861412;29;20113;-70
2021/10/17 11:25:02;;;;;;;3.83;3.03;;;17.10;1.00;;;;;;4859971;29;20038;-70
2021/10/17 11:27:28;;;;;;;5.18;3.30;;;17.00;1.00;;;;;;4859726;29;20069;-72
2021/10/17 11:29:54;;;;;;;5.28;3.03;;;16.70;1.00;;;;;;4861311;29;20080;-73
2021/10/17 11:32:20;;;;;;;4.32;3.10;;;16.60;1.00;;;;;;4861811;29;20194;-73
2021/10/17 11:34:59;;;;;;;5.35;3.00;;;16.70;1.00;;;;;;4861815;29;20045;-72
2021/10/17 11:37:27;;;;;;;6.43;2.72;;;16.70;1.00;;;;;;4860743;29;20057;-71
2021/10/17 11:39:55;;;;;;;3.75;3.00;;;16.70;1.00;;;;;;4861825;29;20042;-73
2021/10/17 11:42:30;;;;;;;3.63;2.63;;;16.80;1.00;;;;;;4859472;29;20038;-74
2021/10/17 11:44:56;;;;;;;4.05;3.08;;;16.90;1.00;;;;;;4860507;29;20044;-74
2021/10/17 11:47:23;;;;;;;4.07;2.90;;;17.10;1.00;;;;;;4861262;29;20081;-74
2021/10/17 11:49:49;;;;;;;28.13;18.27;;;17.20;1.00;;;;;;4861293;29;20041;-73
2021/10/17 11:52:17;;;;;;;7.80;4.07;;;17.20;1.00;;;;;;4861667;29;20051;-74
2021/10/17 11:54:48;;;;;;;4.82;3.00;;;17.20;1.00;;;;;;4861370;29;20045;-74
2021/10/17 11:57:31;;;;;;;3.42;2.65;;;17.30;1.00;;;;;;4861381;29;20049;-74
2021/10/17 11:59:59;;;;;;;4.57;2.78;;;17.50;1.00;;;;;;4845422;29;20050;-74
2021/10/17 12:02:35;;;;;;;5.20;2.85;;;17.50;1.00;;;;;;4861242;29;20045;-74
2021/10/17 12:05:01;;;;;;;4.47;2.88;;;17.40;1.00;;;;;;4861836;29;20533;-74
2021/10/17 12:07:28;;;;;;;4.38;2.90;;;17.50;1.00;;;;;;4862156;29;20056;-74
2021/10/17 12:09:55;;;;;;;3.42;3.08;;;17.60;1.00;;;;;;4863898;29;20033;-74
2021/10/17 12:12:24;;;;;;;5.07;3.00;;;17.60;1.00;;;;;;4864659;29;20053;-74
2021/10/17 12:15:03;;;;;;;6.90;3.03;;;17.60;1.00;;;;;;4863595;29;20033;-74
2021/10/17 12:17:29;;;;;;;4.22;3.17;;;17.60;1.00;;;;;;4864738;29;20041;-74
2021/10/17 12:20:01;;;;;;;5.10;3.38;;;17.50;1.00;;;;;;4864545;29;20094;-74
2021/10/17 12:22:27;;;;;;;4.30;2.90;;;17.40;1.00;;;;;;4864177;29;20068;-74
2021/10/17 12:25:00;;;;;;;4.45;3.20;;;17.40;1.00;;;;;;4864637;29;20089;-74
2021/10/17 12:27:33;;;;;;;4.03;2.70;;;17.30;1.00;;;;;;4864709;29;20046;-74
2021/10/17 12:30:08;;;;;;;3.63;3.25;;;17.30;1.00;;;;;;4864631;29;20486;-71
2021/10/17 12:32:59;;;;;;;4.70;2.88;;;17.20;1.00;;;;;;4863372;29;20041;-73
2021/10/17 12:35:39;;;;;;;3.70;3.05;;;17.10;1.00;;;;;;4843091;29;20379;-73
2021/10/17 12:38:05;;;;;;;5.65;3.00;;;16.80;1.00;;;;;;4863219;29;20042;-73
2021/10/17 12:40:50;;;;;;;3.72;2.83;;;16.50;1.00;;;;;;4859248;29;20067;-73
2021/10/17 12:43:22;;;;;;;5.65;3.00;;;16.20;1.00;;;;;;4872769;29;20037;-74
2021/10/17 12:45:48;;;;;;;4.28;2.75;;;16.10;1.00;;;;;;4847781;29;20140;-73
2021/10/17 12:48:15;;;;;;;3.97;2.55;;;15.90;1.00;;;;;;4864047;29;20049;-73
2021/10/17 12:50:43;;;;;;;6.05;3.13;;;15.80;1.00;;;;;;4873919;29;20047;-72
2021/10/17 12:53:12;;;;;;;3.70;2.30;;;15.70;1.00;;;;;;4848828;29;20045;-73
2021/10/17 12:55:40;;;;;;;4.57;2.80;;;15.70;1.00;;;;;;4848693;29;20045;-73
2021/10/17 12:58:13;;;;;;;3.97;2.80;;;15.90;1.00;;;;;;4858657;29;20049;-74
2021/10/17 13:00:44;;;;;;;5.05;2.95;;;16.10;1.00;;;;;;4869272;29;20048;-73
2021/10/17 13:03:11;;;;;;;;;;;16.10;1.00;;;;;;4877614;29;20501;-74
2021/10/17 13:05:57;;;;;;;6.53;3.08;;;16.00;1.00;;;;;;4876984;29;20478;-74